• Join FlightAware (Why Join?)
  • Login
  • US Flag 
12:13AM EDT


 

Airport Tracker/Info


-or-


 

Live Flight TrackerFlight Track Log ✈ SKW5631 ✈ 23-Sep-2013 ✈ KSFO - KBUR

Flight Track Log - Related Links

Times and Time Zones

All times are in EDT time to prevent confusion due to time zone crossing. See the SKW5631 flight status page for this flight to view local times or setup timezone preferences in your user account.

Time Position Orientation Groundspeed Altitude Reporting Facility
EDT Latitude Longitude Course Direction KTS MPH feet Rate Location/Type
10:55PM 37.6942 -122.3753 290° West 258 297 2,800  Level Oakland Center
10:56PM 37.7172 -122.4564 290° West 260 299 4,800 2,280 Climbing Oakland Center
10:57PM 37.6547 -122.4942 206° Southwest 286 329 7,500 2,400 Climbing Oakland Center
10:58PM 37.5869 -122.4431 149° Southeast 294 338 9,800 1,860 Climbing Oakland Center
10:59PM 37.5189 -122.3714 140° Southeast 317 365 11,400 1,740 Climbing Oakland Center
11:00PM 37.4467 -122.2939 140° Southeast 339 390 13,400 1,740 Climbing Oakland Center
11:01PM 37.3733 -122.2156 140° Southeast 345 397 15,000 1,500 Climbing Oakland Center
11:02PM 37.2969 -122.1333 139° Southeast 358 412 16,500 1,380 Climbing Oakland Center
11:03PM 37.2194 -122.0492 139° Southeast 369 425 17,900 1,440 Climbing Oakland Center
11:04PM 37.1233 -121.9478 140° Southeast 376 433 19,500 1,320 Climbing Oakland Center
11:05PM 37.0422 -121.8625 140° Southeast 380 437 20,700 1,020 Climbing Oakland Center
11:06PM 36.9597 -121.7756 140° Southeast 386 444 21,700 900 Climbing Oakland Center
11:07PM 36.8753 -121.6886 141° Southeast 393 452 22,600 780 Climbing Oakland Center
11:08PM 36.7928 -121.6022 140° Southeast 400 460 23,400 720 Climbing Oakland Center
11:09PM 36.7047 -121.5092 140° Southeast 411 473 24,100 780 Climbing Oakland Center
11:10PM 36.6169 -121.4164 140° Southeast 414 476 25,000 780 Climbing Oakland Center
11:11PM 36.5286 -121.3256 140° Southeast 414 476 25,800 780 Climbing Oakland Center
11:12PM 36.4397 -121.2328 140° Southeast 416 479 26,600 540 Climbing Oakland Center
11:13PM 36.3333 -121.1219 140° Southeast 416 479 27,000 180 Climbing Oakland Center
11:14PM 36.2408 -121.0267 140° Southeast 427 491 27,000  Level Oakland Center
11:15PM 36.1453 -120.9292 141° Southeast 440 506 27,000  Level Oakland Center
11:16PM 36.0494 -120.8308 140° Southeast 446 513 27,000  Level Oakland Center
11:17PM 35.9531 -120.7311 140° Southeast 451 519 27,000  Level Oakland Center
11:18PM 35.8547 -120.6303 140° Southeast 456 525 27,000  Level Oakland Center
11:20PM 35.7572 -120.5319 141° Southeast 455 524 27,000  Level Oakland Center
11:21PM 35.6592 -120.4314 140° Southeast 456 525 27,000  Level Oakland Center
11:22PM 35.5597 -120.3311 141° Southeast 457 526 27,000  Level Oakland Center
11:23PM 35.4581 -120.2294 141° Southeast 459 528 27,000  Level Oakland Center
11:24PM 35.3564 -120.1258 140° Southeast 461 531 27,000  Level Oakland Center
11:25PM 35.2569 -120.0278 141° Southeast 457 526 27,000  Level Oakland Center
11:26PM 35.1583 -119.9300 141° Southeast 457 526 27,000 -1,020 Level Oakland Center
11:27PM 35.0639 -119.8250 138° Southeast 460 529 25,000 -2,100 Descending Oakland Center
11:28PM 34.9775 -119.7078 132° Southeast 464 534 22,800 -2,220 Descending Oakland Center
11:29PM 34.8908 -119.5914 132° Southeast 464 534 20,600 -2,460 Descending Oakland Center
11:30PM 34.7886 -119.4564 133° Southeast 457 526 17,900 -2,460 Descending Oakland Center
11:31PM 34.7083 -119.3486 132° Southeast 444 511 15,700 -2,220 Descending Oakland Center
11:32PM 34.6300 -119.2456 133° Southeast 428 493 13,500 -1,920 Descending Oakland Center
11:33PM 34.5192 -119.0969 132° Southeast 393 452 10,900 -1,140 Descending Los Angeles Center
11:34PM 34.4597 -119.0156 132° Southeast 313 360 10,700 -1,020 Descending Los Angeles Center
11:35PM 34.4131 -118.9394 127° Southeast 281 323 8,900 -1,680 Descending Los Angeles Center
11:36PM 34.3653 -118.8667 128° Southeast 276 318 7,300 -1,380 Descending Los Angeles Center
11:37PM 34.3183 -118.7964 129° Southeast 267 307 6,100 -1,140 Descending Los Angeles Center
11:38PM 34.2744 -118.7278 128° Southeast 261 300 5,000 -960 Descending Los Angeles Center
11:39PM 34.2347 -118.6650 127° Southeast 249 287 4,200 -540 Descending Los Angeles Center
11:40PM 34.2039 -118.6114 125° Southeast 220 253 4,000 -420 Descending Los Angeles Center
11:41PM 34.2006 -118.5325 93° East 204 235 3,400 -840 Descending Los Angeles Center
11:42PM 34.1992 -118.4706 92° East 194 223 2,300 -960 Descending Los Angeles Center
11:43PM 34.1992 -118.4147 90° East 182 209 1,500 -540 Descending Los Angeles Center
11:45PM 34.1981 -118.3669 92° East 174 200 1,200 -300 Descending Los Angeles Center